Time;durP1;ratioP1;P1;durP2;ratioP2;P2;SDS_P1;SDS_P2;PMS_P1;PMS_P2;Temp;Humidity;BMP_temperature;BMP_pressure;BME280_temperature;BME280_humidity;BME280_pressure;Samples;Min_cycle;Max_cycle;Signal;HPM_P1;HPM_P2
2022/07/12 00:02:11;;;;;;;4.65;1.80;;;;;;;20.71;96.14;101238.50;4956134;29;20367;-74
2022/07/12 00:04:57;;;;;;;3.83;2.00;;;;;;;20.74;96.14;101225.00;4955858;28;20042;-74
2022/07/12 00:07:43;;;;;;;4.65;2.03;;;;;;;20.69;96.18;101229.72;4942620;29;20394;-74
2022/07/12 00:10:29;;;;;;;4.63;2.15;;;;;;;20.60;96.27;101227.53;4956545;29;20031;-73
2022/07/12 00:13:15;;;;;;;3.80;1.90;;;;;;;20.68;94.84;101228.00;4955262;28;20035;-73
2022/07/12 00:16:01;;;;;;;3.80;1.90;;;;;;;20.69;95.04;101232.38;4943562;29;20094;-73
2022/07/12 00:18:47;;;;;;;3.10;1.98;;;;;;;20.50;95.21;101230.72;4958862;29;20043;-73
2022/07/12 00:21:33;;;;;;;2.95;1.83;;;;;;;20.05;98.21;101232.94;4958317;29;20023;-73
2022/07/12 00:24:18;;;;;;;2.53;2.03;;;;;;;19.99;98.63;101231.44;4944443;29;20062;-73
2022/07/12 00:27:04;;;;;;;3.97;1.83;;;;;;;20.27;97.10;101225.66;4956947;29;20052;-72
2022/07/12 00:29:50;;;;;;;4.85;1.88;;;;;;;20.23;97.13;101232.94;4956590;29;20042;-74
2022/07/12 00:32:36;;;;;;;4.43;2.33;;;;;;;19.95;98.59;101234.31;4957487;29;20031;-73
2022/07/12 00:35:22;;;;;;;4.18;1.92;;;;;;;20.20;97.08;101241.09;4957907;28;20085;-73
2022/07/12 00:38:07;;;;;;;5.65;1.98;;;;;;;20.38;96.01;101250.84;4956573;29;20023;-73
2022/07/12 00:40:53;;;;;;;6.00;2.10;;;;;;;20.33;96.47;101244.84;4956393;29;20455;-73
2022/07/12 00:43:39;;;;;;;2.80;2.25;;;;;;;20.27;96.52;101245.19;4957213;28;20127;-73
2022/07/12 00:46:25;;;;;;;3.20;2.10;;;;;;;20.35;95.96;101252.78;4957263;29;20450;-73
2022/07/12 00:49:15;;;;;;;3.03;1.90;;;;;;;20.09;98.26;101250.50;4955384;28;20069;-74
2022/07/12 00:52:01;;;;;;;2.45;1.90;;;;;;;19.96;99.98;101247.53;4958444;29;20040;-74
2022/07/12 00:54:46;;;;;;;5.63;1.77;;;;;;;19.84;100.00;101241.97;4959665;28;20087;-74
2022/07/12 00:57:37;;;;;;;2.40;1.92;;;;;;;19.93;100.00;101247.69;4958690;29;20090;-74
2022/07/12 01:00:28;;;;;;;3.45;2.00;;;;;;;20.06;100.00;101246.19;4959338;29;20027;-74
2022/07/12 01:03:15;;;;;;;3.05;1.85;;;;;;;20.27;99.22;101250.50;4959061;28;20031;-73
2022/07/12 01:06:01;;;;;;;7.07;2.22;;;;;;;19.71;100.00;101249.63;4959498;29;20117;-73
2022/07/12 01:08:47;;;;;;;2.85;1.50;;;;;;;19.92;100.00;101253.06;4957966;29;20023;-74
2022/07/12 01:11:34;;;;;;;3.22;2.03;;;;;;;20.07;100.00;101258.53;4931283;29;20023;-75
2022/07/12 01:14:20;;;;;;;2.35;1.85;;;;;;;19.72;100.00;101251.34;4958332;28;20027;-73
2022/07/12 01:17:07;;;;;;;4.97;1.90;;;;;;;19.83;100.00;101256.16;4958752;29;20038;-72
2022/07/12 01:19:55;;;;;;;5.72;1.95;;;;;;;19.75;100.00;101256.53;4959064;29;20027;-73
2022/07/12 01:23:02;;;;;;;5.75;2.00;;;;;;;19.97;100.00;101253.75;4944855;29;20074;-73
2022/07/12 01:25:48;;;;;;;3.55;2.00;;;;;;;19.71;100.00;101259.41;4944073;29;20045;-73
2022/07/12 01:28:34;;;;;;;4.50;1.83;;;;;;;19.81;100.00;101255.41;4958359;29;20078;-73
2022/07/12 01:31:20;;;;;;;3.03;1.90;;;;;;;19.93;100.00;101253.00;4958498;29;20422;-73
2022/07/12 01:34:06;;;;;;;2.03;1.75;;;;;;;19.70;100.00;101255.91;4958657;28;20028;-74
2022/07/12 01:36:52;;;;;;;3.15;1.90;;;;;;;19.54;100.00;101246.91;4958070;29;20373;-72
2022/07/12 01:39:38;;;;;;;1.90;1.70;;;;;;;19.50;100.00;101250.63;4958462;29;20039;-74
2022/07/12 01:42:27;;;;;;;5.93;1.80;;;;;;;19.32;100.00;101250.59;4957995;29;20475;-73
2022/07/12 01:45:13;;;;;;;3.25;1.90;;;;;;;19.60;100.00;101256.41;4957632;28;20378;-73
2022/07/12 01:47:59;;;;;;;3.55;1.70;;;;;;;19.30;100.00;101248.00;4958499;29;20098;-73
2022/07/12 01:50:44;;;;;;;2.22;1.88;;;;;;;19.54;100.00;101246.91;4956898;29;20033;-74
2022/07/12 01:53:30;;;;;;;4.55;1.90;;;;;;;19.60;100.00;101241.28;4957875;28;20170;-73
2022/07/12 01:56:17;;;;;;;4.20;1.98;;;;;;;19.73;100.00;101246.91;4944107;29;20085;-74
2022/07/12 01:59:03;;;;;;;3.63;1.90;;;;;;;19.30;100.00;101245.34;4957347;29;20042;-74
2022/07/12 02:01:48;;;;;;;1.85;1.70;;;;;;;19.33;100.00;101247.00;4957001;28;20070;-73
2022/07/12 02:04:35;;;;;;;3.25;1.98;;;;;;;19.40;100.00;101246.66;4958092;28;20027;-73
2022/07/12 02:07:23;;;;;;;4.53;1.70;;;;;;;19.33;100.00;101242.53;4957564;29;20034;-73
2022/07/12 02:10:09;;;;;;;4.90;2.10;;;;;;;19.38;100.00;101248.53;4957572;29;20031;-72
2022/07/12 02:12:55;;;;;;;3.55;1.77;;;;;;;19.41;100.00;101252.84;4957193;29;20031;-73
2022/07/12 02:15:40;;;;;;;3.97;1.80;;;;;;;19.36;100.00;101249.53;4957767;29;20046;-73
2022/07/12 02:18:26;;;;;;;3.95;2.10;;;;;;;19.46;100.00;101253.47;4958061;29;20035;-73
2022/07/12 02:21:12;;;;;;;2.60;1.90;;;;;;;19.33;100.00;101250.50;4957148;29;20027;-73
2022/07/12 02:23:59;;;;;;;4.25;1.70;;;;;;;19.31;100.00;101252.38;4957432;28;20031;-74
2022/07/12 02:26:45;;;;;;;3.30;1.75;;;;;;;19.21;100.00;101259.03;4956475;29;20402;-73
2022/07/12 02:29:30;;;;;;;3.15;1.85;;;;;;;19.39;100.00;101268.84;4957896;29;20114;-73
2022/07/12 02:32:16;;;;;;;5.85;2.20;;;;;;;19.05;100.00;101265.94;4957639;29;20032;-73
2022/07/12 02:35:03;;;;;;;4.07;2.00;;;;;;;19.53;100.00;101274.38;4956975;28;20031;-74
2022/07/12 02:37:49;;;;;;;4.43;1.90;;;;;;;19.48;100.00;101275.56;4956953;29;20034;-73
2022/07/12 02:40:54;;;;;;;3.22;2.15;;;;;;;18.92;100.00;101270.91;4957271;29;20027;-74
2022/07/12 02:43:39;;;;;;;5.65;2.05;;;;;;;19.02;100.00;101263.41;4957259;28;20035;-74
2022/07/12 02:46:25;;;;;;;3.05;2.00;;;;;;;18.87;100.00;101267.59;4957025;29;20458;-73
2022/07/12 02:49:11;;;;;;;3.67;1.80;;;;;;;19.01;100.00;101270.50;4956536;29;20457;-74
2022/07/12 02:51:57;;;;;;;2.00;1.80;;;;;;;18.68;100.00;101277.25;4956686;29;20035;-73
2022/07/12 02:54:43;;;;;;;3.58;2.03;;;;;;;19.04;100.00;101285.44;4943814;29;20031;-74
2022/07/12 02:57:28;;;;;;;4.25;1.95;;;;;;;18.67;100.00;101278.19;4943538;29;20031;-73
2022/07/12 03:00:14;;;;;;;3.92;1.80;;;;;;;18.79;100.00;101279.44;4956740;29;20027;-72
2022/07/12 03:03:01;;;;;;;3.78;2.15;;;;;;;18.91;100.00;101277.16;4956360;29;20035;-74
2022/07/12 03:05:47;;;;;;;3.55;1.92;;;;;;;18.83;100.00;101279.25;4943533;29;20023;-73
2022/07/12 03:08:33;;;;;;;4.28;2.38;;;;;;;19.02;100.00;101279.34;4957042;29;20027;-75
2022/07/12 03:11:19;;;;;;;4.95;2.40;;;;;;;18.60;100.00;101282.00;4956813;29;20028;-73
2022/07/12 03:14:04;;;;;;;3.90;2.00;;;;;;;18.78;100.00;101280.38;4956079;28;20090;-74
2022/07/12 03:16:50;;;;;;;4.03;1.95;;;;;;;18.57;100.00;101292.75;4957052;29;20497;-73
2022/07/12 03:19:36;;;;;;;4.03;1.90;;;;;;;18.78;100.00;101288.34;4955957;29;20023;-73
2022/07/12 03:22:22;;;;;;;6.63;2.22;;;;;;;18.76;100.00;101293.72;4957002;29;20042;-74
2022/07/12 03:25:08;;;;;;;4.45;2.25;;;;;;;18.87;100.00;101293.25;4956871;28;20027;-73
2022/07/12 03:27:54;;;;;;;5.05;2.10;;;;;;;18.52;100.00;101297.38;4956656;29;20059;-74
2022/07/12 03:30:40;;;;;;;4.00;1.90;;;;;;;18.95;100.00;101304.41;4956604;29;20043;-73
2022/07/12 03:33:25;;;;;;;5.03;2.20;;;;;;;18.92;100.00;101307.19;4955926;28;20035;-74
2022/07/12 03:36:13;;;;;;;4.68;2.10;;;;;;;18.63;100.00;101311.09;4957028;29;20109;-73
2022/07/12 03:38:59;;;;;;;4.32;2.15;;;;;;;18.21;100.00;101309.25;4942491;29;20371;-73
2022/07/12 03:41:44;;;;;;;4.40;2.25;;;;;;;18.96;100.00;101306.13;4942545;29;20098;-73
2022/07/12 03:44:30;;;;;;;3.30;2.20;;;;;;;18.75;100.00;101307.94;4955872;28;20063;-73
2022/07/12 03:47:16;;;;;;;4.18;2.92;;;;;;;18.70;100.00;101301.91;4956064;29;20031;-73
2022/07/12 03:50:07;;;;;;;3.70;2.03;;;;;;;18.69;100.00;101307.31;4956435;29;20035;-73
2022/07/12 03:52:53;;;;;;;4.60;2.10;;;;;;;18.95;100.00;101304.41;4956267;29;20035;-74
2022/07/12 03:55:39;;;;;;;4.18;2.10;;;;;;;18.82;100.00;101305.88;4942621;29;20134;-74
2022/07/12 03:58:24;;;;;;;5.00;2.10;;;;;;;18.60;100.00;101310.31;4956607;29;20122;-74
2022/07/12 04:01:10;;;;;;;5.20;2.20;;;;;;;18.80;100.00;101291.78;4955805;29;20473;-73
2022/07/12 04:03:56;;;;;;;4.35;2.05;;;;;;;18.60;100.00;101303.25;4942714;29;20141;-73
2022/07/12 04:06:42;;;;;;;4.95;2.45;;;;;;;18.47;100.00;101306.44;4956358;29;20067;-74
2022/07/12 04:09:27;;;;;;;2.70;2.20;;;;;;;18.46;100.00;101304.72;4955598;29;20034;-74
2022/07/12 04:12:13;;;;;;;6.90;2.53;;;;;;;18.75;100.00;101301.75;4955610;29;20054;-73
2022/07/12 04:14:59;;;;;;;4.47;2.22;;;;;;;18.79;100.00;101309.53;4942507;29;20058;-74
2022/07/12 04:17:45;;;;;;;5.32;2.42;;;;;;;18.76;100.00;101309.66;4955827;29;20041;-74
2022/07/12 04:20:30;;;;;;;4.00;2.22;;;;;;;18.32;100.00;101307.03;4956610;29;20023;-73
2022/07/12 04:23:16;;;;;;;7.00;2.63;;;;;;;18.69;100.00;101313.47;4955288;28;20023;-74
2022/07/12 04:26:02;;;;;;;3.97;2.55;;;;;;;18.81;100.00;101320.09;4957734;28;20059;-73
2022/07/12 04:28:48;;;;;;;2.80;2.30;;;;;;;18.62;100.00;101329.72;4960469;29;20110;-73
2022/07/12 04:31:33;;;;;;;3.95;2.50;;;;;;;18.82;100.00;101325.31;4960051;29;20031;-74
2022/07/12 04:34:19;;;;;;;4.57;2.78;;;;;;;18.83;100.00;101326.19;4959939;28;20039;-72
2022/07/12 04:37:05;;;;;;;3.75;2.50;;;;;;;18.45;100.00;101335.69;4959803;29;20528;-73
2022/07/12 04:39:51;;;;;;;4.20;2.67;;;;;;;18.74;100.00;101338.03;4959613;29;20058;-73
2022/07/12 04:42:36;;;;;;;3.58;2.65;;;;;;;18.81;100.00;101333.34;4958997;29;20571;-73
2022/07/12 04:45:22;;;;;;;6.30;2.90;;;;;;;18.76;100.00;101338.84;4958720;28;20027;-73
2022/07/12 04:48:08;;;;;;;4.43;2.85;;;;;;;19.10;100.00;101335.66;4959087;29;20039;-73
2022/07/12 04:50:54;;;;;;;3.75;2.75;;;;;;;18.99;100.00;101328.16;4958351;29;20101;-73
2022/07/12 04:53:39;;;;;;;4.28;2.78;;;;;;;18.56;100.00;101343.22;4958657;28;20031;-73
2022/07/12 04:56:25;;;;;;;5.43;2.90;;;;;;;19.03;100.00;101336.84;4959598;29;20026;-74
2022/07/12 04:59:11;;;;;;;4.75;2.72;;;;;;;19.00;100.00;101337.84;4959078;29;20472;-74
2022/07/12 05:01:57;;;;;;;3.90;2.60;;;;;;;19.33;100.00;101332.88;4959303;29;20489;-74
2022/07/12 05:04:42;;;;;;;6.95;2.90;;;;;;;18.58;100.00;101342.22;4959712;28;20469;-74
2022/07/12 05:07:28;;;;;;;5.05;3.25;;;;;;;19.01;100.00;101342.19;4959454;29;20078;-74
2022/07/12 05:10:14;;;;;;;4.55;3.30;;;;;;;19.32;100.00;101341.78;4959177;29;20027;-73
2022/07/12 05:13:00;;;;;;;5.60;3.45;;;;;;;19.49;100.00;101347.22;4959263;29;20450;-74
2022/07/12 05:15:46;;;;;;;5.43;3.20;;;;;;;19.29;100.00;101354.34;4957702;29;20446;-73
2022/07/12 05:18:31;;;;;;;5.93;3.33;;;;;;;19.57;100.00;101349.56;4958892;29;20031;-74
2022/07/12 05:21:17;;;;;;;6.03;3.22;;;;;;;19.76;100.00;101348.66;4957831;29;20505;-74
2022/07/12 05:24:03;;;;;;;7.65;3.42;;;;;;;19.57;100.00;101350.41;4958978;28;20103;-74
2022/07/12 05:26:49;;;;;;;6.07;3.15;;;;;;;19.67;100.00;101358.84;4958197;28;20445;-74
2022/07/12 05:29:35;;;;;;;9.43;2.70;;;;;;;19.58;100.00;101353.94;4959314;29;20413;-74
2022/07/12 05:32:23;;;;;;;6.10;2.90;;;;;;;19.51;100.00;101348.03;4945207;29;20114;-75
2022/07/12 05:35:09;;;;;;;4.68;2.67;;;;;;;19.66;100.00;101357.13;4957793;28;20107;-73
2022/07/12 05:37:55;;;;;;;7.00;2.85;;;;;;;20.03;100.00;101371.34;4958043;29;20474;-74
2022/07/12 05:40:40;;;;;;;4.45;2.85;;;;;;;20.21;100.00;101378.50;4959284;29;20023;-74
2022/07/12 05:43:26;;;;;;;4.30;2.53;;;;;;;20.22;100.00;101369.63;4944957;28;20114;-73
2022/07/12 05:46:12;;;;;;;9.05;2.80;;;;;;;20.56;100.00;101376.84;4957602;29;20034;-74
2022/07/12 05:48:58;;;;;;;5.50;3.22;;;;;;;20.31;100.00;101377.16;4958757;29;20050;-74
2022/07/12 05:54:47;;;;;;;3.15;2.75;;;;;;;20.70;100.00;101374.41;4958049;28;20134;-74
2022/07/12 05:57:33;;;;;;;12.13;2.95;;;;;;;20.64;100.00;101372.88;4957746;29;20106;-74
2022/07/12 06:00:19;;;;;;;5.30;2.90;;;;;;;20.76;100.00;101371.41;4957899;29;20031;-73
2022/07/12 06:03:04;;;;;;;4.70;2.92;;;;;;;20.88;100.00;101368.16;4958235;29;20027;-74
2022/07/12 06:05:50;;;;;;;4.13;2.58;;;;;;;21.08;100.00;101368.06;4958645;29;20039;-73
2022/07/12 06:08:36;;;;;;;4.53;3.10;;;;;;;20.40;100.00;101379.38;4958208;29;20020;-74
2022/07/12 06:11:22;;;;;;;6.80;3.05;;;;;;;21.08;100.00;101376.94;4957733;29;20028;-75
2022/07/12 06:14:08;;;;;;;8.77;3.03;;;;;;;20.96;100.00;101371.34;4958581;28;20098;-73
2022/07/12 06:16:53;;;;;;;4.72;2.80;;;;;;;21.10;100.00;101367.03;4957830;29;20098;-74
2022/07/12 06:19:39;;;;;;;4.60;3.13;;;;;;;21.14;100.00;101376.59;4957793;29;20023;-74
2022/07/12 06:22:25;;;;;;;6.35;3.05;;;;;;;21.03;100.00;101376.31;4958344;29;20054;-73
2022/07/12 06:25:11;;;;;;;5.13;2.90;;;;;;;21.14;100.00;101378.44;4957081;28;20035;-74
2022/07/12 06:28:00;;;;;;;6.07;2.83;;;;;;;21.10;100.00;101372.38;4956987;29;20075;-74
2022/07/12 06:30:46;;;;;;;4.57;3.20;;;;;;;21.30;100.00;101366.88;4957341;29;20031;-75
2022/07/12 06:33:32;;;;;;;4.88;2.97;;;;;;;21.75;100.00;101366.34;4956811;28;20033;-73
2022/07/12 06:36:17;;;;;;;5.88;2.90;;;;;;;21.69;100.00;101371.94;4957766;29;20031;-74
2022/07/12 06:39:03;;;;;;;7.85;3.22;;;;;;;22.40;98.52;101372.50;4957291;29;20113;-73
2022/07/12 06:41:49;;;;;;;6.90;3.00;;;;;;;22.41;98.21;101370.66;4957431;29;20111;-73
2022/07/12 06:44:35;;;;;;;6.10;2.80;;;;;;;21.54;100.00;101376.28;4943997;29;20027;-74
2022/07/12 06:47:21;;;;;;;6.20;2.80;;;;;;;21.77;100.00;101367.97;4957431;28;20103;-73
2022/07/12 06:50:07;;;;;;;5.50;3.10;;;;;;;22.29;99.78;101387.38;4943965;29;20031;-73
2022/07/12 06:52:53;;;;;;;6.57;3.63;;;;;;;22.64;96.88;101381.84;4944026;28;20042;-74
2022/07/12 06:55:39;;;;;;;5.00;2.90;;;;;;;22.76;95.15;101390.97;4957586;29;20175;-74
2022/07/12 06:58:25;;;;;;;5.22;2.95;;;;;;;22.48;98.92;101383.66;4956321;29;20102;-75
2022/07/12 07:01:10;;;;;;;6.30;2.97;;;;;;;22.97;94.81;101387.03;4957383;29;20093;-74
2022/07/12 07:03:56;;;;;;;5.90;3.00;;;;;;;23.15;92.16;101386.81;4956474;28;20035;-74
2022/07/12 07:06:43;;;;;;;7.05;2.70;;;;;;;23.05;94.48;101384.78;4956931;29;20052;-74
2022/07/12 07:09:29;;;;;;;5.40;3.00;;;;;;;22.47;97.80;101389.91;4956915;29;20454;-74
2022/07/12 07:12:14;;;;;;;4.53;2.78;;;;;;;22.36;95.77;101381.63;4957102;29;20035;-76
2022/07/12 07:15:00;;;;;;;11.43;3.38;;;;;;;23.09;95.88;101379.19;4956880;28;20035;-75
2022/07/12 07:17:46;;;;;;;4.60;2.92;;;;;;;23.57;91.92;101383.44;4956579;29;20030;-74
2022/07/12 07:20:32;;;;;;;4.72;3.03;;;;;;;23.46;90.70;101391.25;4955703;29;20041;-75
2022/07/12 07:23:18;;;;;;;7.30;3.67;;;;;;;23.71;89.31;101385.28;4956522;28;20402;-74
2022/07/12 07:26:04;;;;;;;7.40;3.40;;;;;;;22.97;91.05;101389.72;4955910;28;20046;-74
2022/07/12 07:31:54;;;;;;;5.05;3.33;;;;;;;23.84;89.55;101384.44;4956069;29;20470;-76
2022/07/12 07:34:41;;;;;;;4.72;3.20;;;;;;;23.62;90.64;101378.69;4956432;28;20130;-73
2022/07/12 07:37:27;;;;;;;4.78;3.10;;;;;;;24.51;85.99;101381.94;4956103;29;20123;-75
2022/07/12 07:40:13;;;;;;;7.05;3.28;;;;;;;24.36;85.67;101382.06;4956988;29;20042;-75
2022/07/12 07:42:58;;;;;;;6.47;3.42;;;;;;;24.77;82.11;101383.84;4956228;29;20027;-74
2022/07/12 07:45:45;;;;;;;11.32;3.72;;;;;;;25.16;79.58;101383.84;4956288;29;20098;-75
2022/07/12 07:48:31;;;;;;;14.50;11.93;;;;;;;24.83;82.07;101385.25;4942868;29;20027;-75
2022/07/12 07:51:17;;;;;;;7.65;4.07;;;;;;;25.39;75.35;101393.94;4955404;29;20027;-74
2022/07/12 07:54:03;;;;;;;7.35;5.20;;;;;;;25.50;74.61;101375.28;4956345;28;20038;-74
2022/07/12 07:56:48;;;;;;;6.47;3.47;;;;;;;25.71;75.77;101386.34;4942712;29;20370;-75
2022/07/12 07:59:35;;;;;;;5.35;3.72;;;;;;;25.58;75.51;101383.66;4955928;28;20023;-75
2022/07/12 08:02:21;;;;;;;4.20;3.40;;;;;;;25.77;71.71;101383.25;4955157;29;20050;-75
2022/07/12 08:05:07;;;;;;;5.18;3.50;;;;;;;25.60;72.69;101383.56;4956200;28;20031;-75
2022/07/12 08:07:53;;;;;;;6.75;3.72;;;;;;;25.71;72.56;101386.34;4955823;29;20110;-75
2022/07/12 08:10:39;;;;;;;4.90;3.58;;;;;;;25.96;71.88;101387.25;4956089;29;20037;-75
2022/07/12 08:13:25;;;;;;;6.05;3.10;;;;;;;26.79;68.10;101383.88;4956105;28;20030;-74
2022/07/12 08:16:11;;;;;;;4.72;3.00;;;;;;;26.58;66.63;101383.63;4942659;28;20023;-73
2022/07/12 08:18:57;;;;;;;9.57;3.53;;;;;;;26.73;64.02;101387.03;4943125;29;20477;-74
2022/07/12 08:21:43;;;;;;;9.02;3.83;;;;;;;27.44;62.71;101377.97;4954724;29;20510;-74
2022/07/12 08:24:28;;;;;;;8.60;5.78;;;;;;;27.16;62.75;101381.00;4942424;29;20458;-74
2022/07/12 08:27:14;;;;;;;11.98;7.72;;;;;;;26.84;62.06;101381.72;4942487;29;20477;-75
2022/07/12 08:30:00;;;;;;;5.20;3.50;;;;;;;26.47;63.98;101379.97;4956493;29;20035;-74
2022/07/12 08:32:46;;;;;;;8.43;3.35;;;;;;;27.00;62.39;101375.06;4955454;29;20046;-75
2022/07/12 08:35:32;;;;;;;3.88;3.10;;;;;;;27.04;61.20;101370.31;4955890;29;20086;-74
2022/07/12 08:38:17;;;;;;;7.15;3.30;;;;;;;27.49;60.89;101366.84;4955949;29;20038;-74
2022/07/12 08:41:05;;;;;;;5.30;3.40;;;;;;;28.28;57.08;101372.22;4956185;29;20035;-74
2022/07/12 08:43:50;;;;;;;5.22;2.95;;;;;;;27.69;58.53;101363.47;4942343;28;20073;-74
2022/07/12 08:46:36;;;;;;;3.55;2.58;;;;;;;27.94;56.57;101365.09;4942171;29;20031;-75
2022/07/12 08:49:22;;;;;;;3.30;2.88;;;;;;;27.91;55.48;101360.81;4942405;29;20023;-73
2022/07/12 08:52:27;;;;;;;8.27;2.53;;;;;;;28.16;56.62;101357.88;4956094;29;20035;-74
2022/07/12 08:55:28;;;;;;;4.45;2.60;;;;;;;28.30;54.46;101354.06;4955326;28;20094;-74
2022/07/12 08:58:18;;;;;;;7.05;2.60;;;;;;;28.51;53.97;101349.66;4955295;29;20027;-74
2022/07/12 09:01:04;;;;;;;5.72;2.90;;;;;;;28.52;53.55;101354.94;4955548;29;20101;-74
2022/07/12 09:04:09;;;;;;;3.95;2.63;;;;;;;28.64;52.66;101345.81;4954501;28;20027;-74
2022/07/12 09:06:54;;;;;;;3.13;2.30;;;;;;;27.40;54.43;101335.22;4954881;29;20039;-74
2022/07/12 09:09:40;;;;;;;5.60;3.08;;;;;;;27.96;53.63;101334.34;4955648;29;20031;-74
2022/07/12 09:12:26;;;;;;;3.47;2.65;;;;;;;27.94;53.96;101340.84;4945379;29;20027;-74
2022/07/12 09:15:17;;;;;;;4.95;2.45;;;;;;;28.69;51.34;101334.69;4958494;28;20148;-76
2022/07/12 09:18:18;;;;;;;4.18;2.70;;;;;;;28.63;51.27;101336.03;4945651;29;20109;-74
2022/07/12 09:21:04;;;;;;;6.97;2.20;;;;;;;28.23;50.98;101328.59;4958286;29;20050;-74
2022/07/12 09:23:59;;;;;;;4.90;2.33;;;;;;;28.67;49.58;101326.69;4959531;28;20031;-75
2022/07/12 09:26:46;;;;;;;4.88;2.33;;;;;;;29.01;50.20;101325.63;4958378;29;20109;-75
2022/07/12 09:29:35;;;;;;;4.30;2.17;;;;;;;28.44;50.42;101330.44;4959737;29;20027;-75
2022/07/12 09:38:30;;;;;;;17.02;4.05;;;;;;;28.77;51.38;101322.25;4958206;29;20027;-74
2022/07/12 09:41:17;;;;;;;57.88;7.25;;;;;;;28.52;51.32;101322.56;4958398;29;20027;-74
2022/07/12 09:44:05;;;;;;;4.13;2.00;;;;;;;28.16;50.63;101316.63;4957743;28;20031;-74
2022/07/12 09:46:51;;;;;;;5.25;2.40;;;;;;;28.45;50.47;101312.44;4957881;29;20118;-75
2022/07/12 09:49:38;;;;;;;4.22;2.38;;;;;;;28.82;50.54;101309.25;4958143;28;20046;-75
2022/07/12 09:52:27;;;;;;;5.85;2.10;;;;;;;29.27;49.99;101312.59;4958140;29;20051;-75
2022/07/12 09:55:17;;;;;;;3.63;1.92;;;;;;;28.50;48.88;101302.97;4958670;28;20466;-75
2022/07/12 09:58:04;;;;;;;2.67;2.00;;;;;;;29.15;48.08;101300.16;4957350;29;20042;-75
2022/07/12 10:00:52;;;;;;;3.22;2.47;;;;;;;29.59;46.48;101300.78;4943924;29;20031;-74
2022/07/12 10:03:40;;;;;;;4.07;2.35;;;;;;;29.57;46.94;101302.75;4944379;28;20034;-75
2022/07/12 10:06:28;;;;;;;3.67;2.30;;;;;;;28.59;47.98;101291.41;4957808;29;20031;-74
2022/07/12 10:09:17;;;;;;;4.25;2.45;;;;;;;28.75;48.03;101297.25;4957041;29;20035;-74
2022/07/12 10:12:03;;;;;;;4.85;2.55;;;;;;;29.45;47.09;101287.56;4957718;29;20042;-74
2022/07/12 10:14:57;;;;;;;13.30;3.15;;;;;;;29.20;47.17;101296.09;4957450;28;20248;-75
2022/07/12 10:17:56;;;;;;;3.78;2.10;;;;;;;28.86;45.87;101289.13;4944785;28;20039;-75
2022/07/12 10:20:43;;;;;;;7.47;2.40;;;;;;;28.24;47.67;101295.28;4956853;29;20058;-74
2022/07/12 10:23:36;;;;;;;7.28;2.55;;;;;;;28.15;49.04;101296.00;4956984;28;20039;-74
2022/07/12 10:26:38;;;;;;;3.15;1.90;;;;;;;27.93;50.19;101299.59;4957033;29;20066;-75
2022/07/12 10:29:25;;;;;;;2.20;1.80;;;;;;;27.91;48.85;101292.59;4957081;29;20027;-74
2022/07/12 10:32:27;;;;;;;3.45;2.08;;;;;;;27.57;49.19;101289.03;4943545;29;20101;-73
2022/07/12 10:35:15;;;;;;;3.42;2.00;;;;;;;27.56;46.70;101294.53;4957875;28;20042;-74
2022/07/12 10:38:16;;;;;;;4.55;2.83;;;;;;;27.96;46.65;101291.25;4957690;29;20094;-74
2022/07/12 10:41:24;;;;;;;5.53;3.05;;;;;;;28.70;43.96;101291.41;4957589;29;20085;-75
2022/07/12 10:44:10;;;;;;;3.90;2.10;;;;;;;28.41;44.52;101290.22;4943106;29;20110;-75
2022/07/12 10:47:00;;;;;;;4.15;1.88;;;;;;;28.26;44.30;101283.41;4956797;29;20465;-74
2022/07/12 10:49:48;;;;;;;3.25;2.42;;;;;;;28.49;43.08;101279.66;4957693;29;20370;-75
2022/07/12 10:52:34;;;;;;;3.20;2.60;;;;;;;29.06;40.91;101282.91;4956651;29;20038;-74
2022/07/12 10:55:20;;;;;;;2.03;1.80;;;;;;;28.68;40.38;101277.16;4957565;28;20031;-76
2022/07/12 10:58:06;;;;;;;3.25;1.95;;;;;;;29.10;41.41;101276.28;4957269;28;20070;-75
2022/07/12 11:00:51;;;;;;;2.80;1.95;;;;;;;29.57;41.92;101281.13;4957189;29;20113;-74
2022/07/12 11:03:43;;;;;;;7.88;2.38;;;;;;;30.17;40.33;101281.13;4943125;28;20477;-74
2022/07/12 11:06:29;;;;;;;6.03;3.17;;;;;;;30.51;40.01;101277.09;4956162;29;20509;-74
2022/07/12 11:09:18;;;;;;;6.03;2.33;;;;;;;29.55;38.60;101266.03;4956517;29;20019;-74
2022/07/12 11:12:04;;;;;;;2.85;1.83;;;;;;;29.18;40.21;101278.31;4957252;29;20453;-74
2022/07/12 11:14:50;;;;;;;7.57;2.10;;;;;;;29.83;39.35;101276.13;4956515;28;20030;-74
2022/07/12 11:17:36;;;;;;;4.93;1.80;;;;;;;29.18;40.38;101278.31;4957333;29;20454;-74
2022/07/12 11:20:28;;;;;;;2.45;1.80;;;;;;;28.44;41.38;101273.81;4943355;29;20035;-74
2022/07/12 11:23:13;;;;;;;4.53;2.10;;;;;;;29.20;41.66;101270.91;4943635;28;20102;-75
2022/07/12 11:26:00;;;;;;;4.20;1.90;;;;;;;29.15;40.08;101273.16;4956168;29;20037;-74
2022/07/12 11:28:48;;;;;;;2.83;1.58;;;;;;;28.74;40.44;101265.00;4956787;29;20129;-74
2022/07/12 11:31:34;;;;;;;4.00;2.03;;;;;;;29.30;40.20;101267.31;4956063;29;20031;-75
2022/07/12 11:34:24;;;;;;;4.03;1.80;;;;;;;29.84;38.53;101272.44;4955606;28;20035;-75
2022/07/12 11:37:10;;;;;;;2.00;1.80;;;;;;;29.63;37.74;101266.25;4957252;29;20416;-75
2022/07/12 11:39:56;;;;;;;3.58;2.10;;;;;;;30.18;36.40;101254.97;4956428;28;20346;-75
2022/07/12 11:42:54;;;;;;;2.75;2.03;;;;;;;29.69;36.52;101257.59;4942490;29;20118;-75
2022/07/12 11:45:39;;;;;;;3.58;1.67;;;;;;;30.01;36.64;101259.13;4955298;29;20023;-75
2022/07/12 11:48:25;;;;;;;2.08;1.63;;;;;;;29.79;36.53;101251.25;4956142;29;20035;-74
2022/07/12 11:51:13;;;;;;;1.85;1.55;;;;;;;29.47;38.47;101258.59;4955719;29;20468;-75
2022/07/12 11:53:58;;;;;;;2.95;1.80;;;;;;;30.17;37.31;101258.63;4956173;28;20049;-77
2022/07/12 11:56:44;;;;;;;4.75;1.88;;;;;;;29.54;37.90;101254.34;4955724;29;20469;-74
2022/07/12 11:59:30;;;;;;;2.40;1.63;;;;;;;29.52;37.31;101250.94;4956600;29;20038;-74
2022/07/12 12:02:17;;;;;;;4.18;1.70;;;;;;;29.73;37.07;101254.47;4955818;29;20027;-75
2022/07/12 12:05:04;;;;;;;4.78;1.67;;;;;;;29.45;37.03;101243.53;4955718;28;20073;-75
2022/07/12 12:07:50;;;;;;;3.42;2.10;;;;;;;29.52;37.22;101245.53;4955524;29;20094;-74
2022/07/12 12:10:36;;;;;;;9.07;5.00;;;;;;;29.81;37.77;101251.13;4956232;29;20019;-75
2022/07/12 12:13:22;;;;;;;3.50;1.90;;;;;;;29.20;37.89;101250.19;4942344;28;20035;-75
2022/07/12 12:16:10;;;;;;;2.00;1.77;;;;;;;29.36;37.71;101252.41;4956071;29;20078;-75
2022/07/12 12:19:01;;;;;;;3.33;1.63;;;;;;;29.04;37.51;101248.94;4956136;29;20050;-74
2022/07/12 12:21:47;;;;;;;3.67;1.98;;;;;;;29.34;37.84;101247.16;4954814;29;20023;-75
2022/07/12 12:24:33;;;;;;;2.92;1.80;;;;;;;29.42;37.46;101246.47;4955708;28;20019;-74
2022/07/12 12:27:25;;;;;;;7.43;3.08;;;;;;;29.47;38.32;101258.59;4941985;29;20055;-75
2022/07/12 12:30:12;;;;;;;6.95;2.80;;;;;;;29.30;38.10;101250.25;4955133;29;20027;-74
2022/07/12 12:33:03;;;;;;;2.75;2.35;;;;;;;29.09;37.96;101241.31;4955555;29;20027;-74
2022/07/12 12:35:49;;;;;;;3.38;1.90;;;;;;;29.34;37.53;101240.91;4956304;29;20074;-74
2022/07/12 12:38:36;;;;;;;3.30;1.90;;;;;;;29.84;36.17;101242.72;4955479;29;20118;-74
2022/07/12 12:41:23;;;;;;;5.15;2.10;;;;;;;29.73;36.60;101243.66;4942651;28;20031;-75
2022/07/12 12:44:15;;;;;;;3.90;2.08;;;;;;;30.56;35.78;101238.78;4955283;28;20038;-74
2022/07/12 12:50:06;;;;;;;4.63;2.90;;;;;;;30.05;35.55;101233.53;4958997;29;20023;-74
2022/07/12 12:52:52;;;;;;;3.53;1.67;;;;;;;30.28;33.47;101224.22;4959199;29;20032;-75
2022/07/12 12:55:39;;;;;;;4.85;2.30;;;;;;;30.90;33.38;101218.44;4959890;29;20071;-75
2022/07/12 12:58:26;;;;;;;3.80;1.70;;;;;;;30.27;34.34;101218.97;4958961;29;20045;-75
2022/07/12 13:01:12;;;;;;;2.75;2.05;;;;;;;30.08;33.92;101227.00;4959307;29;20442;-75
2022/07/12 13:03:58;;;;;;;2.15;1.80;;;;;;;29.15;34.96;101224.56;4958823;28;20054;-75
2022/07/12 13:06:44;;;;;;;2.72;1.80;;;;;;;29.09;35.79;101223.25;4959636;29;20027;-75
2022/07/12 13:09:30;;;;;;;7.78;2.03;;;;;;;29.71;34.54;101221.34;4959214;29;20042;-75